createdAt,value
2019-02-11T06:58:09.848Z,1009.20
2019-02-11T06:59:09.822Z,1009.09
2019-02-11T07:00:09.809Z,1009.17
2019-02-11T07:01:09.799Z,1009.13
2019-02-11T07:02:09.811Z,1009.24
2019-02-11T07:03:09.777Z,1009.24
2019-02-11T07:04:09.768Z,1009.27
2019-02-11T07:05:09.760Z,1009.28
2019-02-11T07:06:09.767Z,1009.38
2019-02-11T07:07:09.755Z,1009.37
2019-02-11T07:08:09.725Z,1009.29
2019-02-11T07:09:09.723Z,1009.40
2019-02-11T07:10:09.712Z,1009.47
2019-02-11T07:11:09.695Z,1009.49
2019-02-11T07:12:09.704Z,1009.51
2019-02-11T07:13:09.674Z,1009.48
2019-02-11T07:14:09.665Z,1009.49
2019-02-11T07:15:09.667Z,1009.56
2019-02-11T07:16:09.646Z,1009.59
2019-02-11T07:17:09.658Z,1009.67
2019-02-11T07:19:05.489Z,1009.63
2019-02-11T07:20:05.473Z,1009.75
2019-02-11T07:21:05.459Z,1009.69
2019-02-11T07:22:05.471Z,1009.73
2019-02-11T07:23:05.445Z,1009.74
2019-02-11T07:24:05.434Z,1009.74
2019-02-11T07:25:05.438Z,1009.83
2019-02-11T07:26:05.428Z,1009.76
2019-02-11T07:27:05.420Z,1009.86
2019-02-11T07:28:05.386Z,1009.85
2019-02-11T07:29:05.387Z,1009.86
2019-02-11T07:30:05.370Z,1009.92
2019-02-11T07:31:05.358Z,1009.94
2019-02-11T07:32:05.366Z,1009.94
2019-02-11T07:33:05.338Z,1009.93
2019-02-11T07:34:05.331Z,1009.93
2019-02-11T07:35:05.337Z,1009.99
2019-02-11T07:36:05.341Z,1010.05
2019-02-11T07:37:05.320Z,1010.04
2019-02-11T07:38:05.307Z,1010.09
2019-02-11T07:39:05.291Z,1010.10
2019-02-11T07:40:05.275Z,1010.18
2019-02-11T07:41:05.264Z,1010.17
2019-02-11T07:42:05.291Z,1010.19
2019-02-11T07:43:05.233Z,1010.20
2019-02-11T07:44:05.240Z,1010.22
2019-02-11T07:45:05.243Z,1010.29
2019-02-11T07:46:05.210Z,1010.29
2019-02-11T07:47:05.223Z,1010.39
2019-02-11T07:48:05.206Z,1010.48
2019-02-11T07:49:05.210Z,1010.42
2019-02-11T07:50:05.177Z,1010.46
2019-02-11T07:51:05.154Z,1010.42
2019-02-11T07:52:05.437Z,1010.43
2019-02-11T07:53:05.134Z,1010.45
2019-02-11T07:54:05.126Z,1010.49
2019-02-11T07:55:05.111Z,1010.49
2019-02-11T07:56:05.106Z,1010.50
2019-02-11T07:57:05.094Z,1010.53
2019-02-11T07:58:05.136Z,1010.54
2019-02-11T07:59:05.105Z,1010.56
2019-02-11T08:00:05.073Z,1010.57
2019-02-11T08:01:05.051Z,1010.57
2019-02-11T08:02:05.059Z,1010.61
2019-02-11T08:03:05.053Z,1010.58
2019-02-11T08:04:05.021Z,1010.65
2019-02-11T08:05:05.045Z,1010.64
2019-02-11T08:06:05.033Z,1010.64
2019-02-11T08:07:05.001Z,1010.72
2019-02-11T08:08:05.010Z,1010.71
2019-02-11T08:09:04.974Z,1010.71
2019-02-11T08:10:04.965Z,1010.74
2019-02-11T08:11:04.962Z,1010.72
2019-02-11T08:12:04.948Z,1010.71
2019-02-11T08:13:04.972Z,1010.81
2019-02-11T08:14:04.928Z,1010.72
2019-02-11T08:15:04.907Z,1010.73
2019-02-11T08:16:04.902Z,1010.87
2019-02-11T08:17:04.893Z,1010.90
2019-02-11T08:18:04.925Z,1010.94
2019-02-11T08:19:04.874Z,1010.88
2019-02-11T08:20:04.872Z,1010.93
2019-02-11T08:21:04.842Z,1010.84
2019-02-11T08:22:04.842Z,1010.79
2019-02-11T08:23:11.895Z,1010.94
2019-02-11T08:24:05.812Z,1010.93
2019-02-11T08:25:04.814Z,1010.84
2019-02-11T08:26:06.189Z,1010.86
2019-02-11T08:27:04.789Z,1010.83
2019-02-11T08:28:04.829Z,1010.92
2019-02-11T08:29:04.774Z,1010.97
2019-02-11T08:30:04.757Z,1010.96
2019-02-11T08:31:04.780Z,1011.02
2019-02-11T08:32:04.754Z,1011.07
2019-02-11T08:33:04.749Z,1011.06
2019-02-11T08:34:04.716Z,1011.11
2019-02-11T08:35:04.710Z,1011.04
2019-02-11T08:36:04.698Z,1011.08
2019-02-11T08:37:04.680Z,1011.16
2019-02-11T08:38:04.687Z,1011.13
2019-02-11T08:39:04.682Z,1011.19
2019-02-11T08:40:04.645Z,1011.23
2019-02-11T08:41:04.638Z,1011.25
2019-02-11T08:42:04.641Z,1011.18
2019-02-11T08:43:04.752Z,1011.29
2019-02-11T08:44:04.603Z,1011.32
2019-02-11T08:45:04.608Z,1011.33
2019-02-11T08:46:04.598Z,1011.35
2019-02-11T08:47:04.617Z,1011.30
2019-02-11T08:48:04.624Z,1011.33
2019-02-11T08:49:04.563Z,1011.36
2019-02-11T08:50:04.542Z,1011.35
2019-02-11T08:51:04.549Z,1011.37
2019-02-11T08:52:04.520Z,1011.41
2019-02-11T08:53:04.556Z,1011.47
2019-02-11T08:54:04.499Z,1011.47
2019-02-11T08:55:04.518Z,1011.50
2019-02-11T08:56:04.477Z,1011.55
2019-02-11T08:57:04.479Z,1011.51
2019-02-11T08:58:04.505Z,1011.62
2019-02-11T08:59:04.451Z,1011.49
2019-02-11T09:00:04.457Z,1011.49
2019-02-11T09:01:04.462Z,1011.56
2019-02-11T09:02:04.430Z,1011.59
2019-02-11T09:03:04.430Z,1011.61
2019-02-11T09:04:04.397Z,1011.68
2019-02-11T09:05:04.386Z,1011.70
2019-02-11T09:06:04.375Z,1011.78
2019-02-11T09:07:04.375Z,1011.73
2019-02-11T09:08:04.382Z,1011.75
2019-02-11T09:09:04.359Z,1011.76
2019-02-11T09:10:04.328Z,1011.76
2019-02-11T09:11:04.327Z,1011.78
2019-02-11T09:12:04.312Z,1011.81
2019-02-11T09:13:04.323Z,1011.80
2019-02-11T09:14:04.294Z,1011.84
2019-02-11T09:15:04.289Z,1011.82
2019-02-11T09:16:04.299Z,1011.80
2019-02-11T09:17:10.025Z,1011.84
2019-02-11T09:18:05.394Z,1011.93
2019-02-11T09:19:04.252Z,1011.84
2019-02-11T09:20:04.226Z,1011.88
2019-02-11T09:21:04.219Z,1011.95
2019-02-11T09:22:07.711Z,1011.95
2019-02-11T09:23:04.217Z,1012.01
2019-02-11T09:24:04.216Z,1012.03
2019-02-11T09:25:04.182Z,1012.07
2019-02-11T09:26:04.172Z,1012.01
2019-02-11T09:27:04.159Z,1012.06
2019-02-11T09:28:04.173Z,1012.11
2019-02-11T09:29:04.163Z,1012.14
2019-02-11T09:30:04.130Z,1012.21
2019-02-11T09:31:04.122Z,1012.16
2019-02-11T09:32:04.107Z,1012.21
2019-02-11T09:33:04.097Z,1012.23
2019-02-11T09:34:04.111Z,1012.31
2019-02-11T09:35:04.132Z,1012.27
2019-02-11T09:36:04.064Z,1012.33
2019-02-11T09:37:04.059Z,1012.32
2019-02-11T09:38:04.039Z,1012.34
2019-02-11T09:39:04.066Z,1012.30
2019-02-11T09:40:04.013Z,1012.40
2019-02-11T09:41:04.002Z,1012.36
2019-02-11T09:42:03.997Z,1012.44
2019-02-11T09:43:03.981Z,1012.40
2019-02-11T09:44:03.992Z,1012.47
2019-02-11T09:45:03.975Z,1012.48
2019-02-11T09:46:04.271Z,1012.51
2019-02-11T09:47:03.946Z,1012.52
2019-02-11T09:48:03.935Z,1012.60
2019-02-11T09:49:03.956Z,1012.58
2019-02-11T09:50:03.915Z,1012.66
2019-02-11T09:51:03.893Z,1012.62
2019-02-11T09:52:03.883Z,1012.64
2019-02-11T09:53:03.872Z,1012.66
2019-02-11T09:54:03.889Z,1012.68
2019-02-11T09:55:03.860Z,1012.70
2019-02-11T09:56:03.856Z,1012.69
2019-02-11T09:57:03.848Z,1012.74
2019-02-11T09:58:03.820Z,1012.76
2019-02-11T09:59:03.827Z,1012.71
2019-02-11T10:00:03.801Z,1012.72
2019-02-11T10:01:03.800Z,1012.69
2019-02-11T10:02:03.779Z,1012.75
2019-02-11T10:03:03.767Z,1012.78
2019-02-11T10:04:03.773Z,1012.78
2019-02-11T10:05:03.746Z,1012.79
2019-02-11T10:06:03.737Z,1012.85
2019-02-11T10:07:03.731Z,1012.82
2019-02-11T10:08:03.713Z,1012.82
2019-02-11T10:09:03.720Z,1012.81
2019-02-11T10:10:03.689Z,1012.81
2019-02-11T10:11:03.691Z,1012.81
2019-02-11T10:12:03.669Z,1012.88
2019-02-11T10:13:03.673Z,1012.90
2019-02-11T10:14:03.671Z,1012.86
2019-02-11T10:15:03.641Z,1012.88
2019-02-11T10:16:12.042Z,1012.94
2019-02-11T10:17:04.625Z,1012.92
2019-02-11T10:18:03.601Z,1013.02
2019-02-11T10:19:03.621Z,1012.94
2019-02-11T10:20:03.580Z,1012.99
2019-02-11T10:21:03.572Z,1012.99
2019-02-11T10:22:03.562Z,1013.03
2019-02-11T10:23:03.810Z,1013.12
2019-02-11T10:24:03.560Z,1013.05
2019-02-11T10:25:03.546Z,1013.00
2019-02-11T10:26:03.527Z,1013.08
2019-02-11T10:27:03.501Z,1013.10
2019-02-11T10:28:03.497Z,1013.06
2019-02-11T10:29:03.514Z,1013.16
2019-02-11T10:30:03.486Z,1013.14
2019-02-11T10:31:03.464Z,1013.00
2019-02-11T10:32:03.452Z,1013.13
2019-02-11T10:33:03.446Z,1012.95
2019-02-11T10:34:03.454Z,1013.05
2019-02-11T10:35:03.420Z,1013.04
2019-02-11T10:36:03.408Z,1013.10
2019-02-11T10:37:03.416Z,1013.33
2019-02-11T10:38:03.394Z,1013.19
2019-02-11T10:39:03.407Z,1013.25
2019-02-11T10:40:03.359Z,1013.19
2019-02-11T10:41:03.363Z,1013.20
2019-02-11T10:42:03.338Z,1013.26
2019-02-11T10:43:03.344Z,1013.25
2019-02-11T10:44:03.348Z,1013.33
2019-02-11T10:45:03.305Z,1013.35
2019-02-11T10:46:03.315Z,1013.30
2019-02-11T10:47:03.292Z,1013.43
2019-02-11T10:48:03.291Z,1013.47
2019-02-11T10:49:03.262Z,1013.52
2019-02-11T10:50:03.271Z,1013.54
2019-02-11T10:51:03.240Z,1013.59
2019-02-11T10:52:03.242Z,1013.55
2019-02-11T10:53:03.218Z,1013.56
2019-02-11T10:54:03.215Z,1013.57
2019-02-11T10:55:03.221Z,1013.62
2019-02-11T10:56:03.183Z,1013.62
2019-02-11T10:57:03.174Z,1013.65
2019-02-11T10:58:03.159Z,1013.70
2019-02-11T10:59:03.156Z,1013.72
2019-02-11T11:00:03.172Z,1013.72
2019-02-11T11:01:03.131Z,1013.67
2019-02-11T11:02:03.114Z,1013.61
2019-02-11T11:03:03.114Z,1013.65
2019-02-11T11:04:03.093Z,1013.66
2019-02-11T11:05:03.103Z,1013.74
2019-02-11T11:06:03.074Z,1013.60
2019-02-11T11:07:03.058Z,1013.67
2019-02-11T11:08:03.050Z,1013.69
2019-02-11T11:09:04.613Z,1013.58
2019-02-11T11:10:03.049Z,1013.62
2019-02-11T11:11:03.017Z,1013.68
2019-02-11T11:12:03.006Z,1013.72
2019-02-11T11:13:02.990Z,1013.69
2019-02-11T11:14:02.991Z,1013.79
2019-02-11T11:15:03.000Z,1013.76
2019-02-11T11:16:02.976Z,1013.78
2019-02-11T11:17:02.981Z,1013.86
2019-02-11T11:18:02.955Z,1013.91
2019-02-11T11:19:02.923Z,1013.88
2019-02-11T11:20:02.933Z,1013.95
2019-02-11T11:21:02.900Z,1013.97
2019-02-11T11:22:02.891Z,1013.91
2019-02-11T11:23:02.877Z,1013.94
2019-02-11T11:24:02.884Z,1013.96
2019-02-11T11:25:02.878Z,1013.94
2019-02-11T11:26:02.850Z,1013.97
2019-02-11T11:27:02.833Z,1013.96
2019-02-11T11:28:02.822Z,1014.05
2019-02-11T11:29:02.813Z,1014.02
2019-02-11T11:30:02.823Z,1013.96
2019-02-11T11:31:02.789Z,1014.00
2019-02-11T11:32:02.777Z,1013.94
2019-02-11T11:33:02.777Z,1014.02
2019-02-11T11:34:02.758Z,1014.04
2019-02-11T11:35:02.774Z,1014.02
2019-02-11T11:36:02.732Z,1014.09
2019-02-11T11:37:02.721Z,1014.13
2019-02-11T11:38:02.711Z,1014.14
2019-02-11T11:39:02.701Z,1014.09
2019-02-11T11:40:02.707Z,1014.08
2019-02-11T11:41:02.688Z,1014.07
2019-02-11T11:42:02.666Z,1014.12
2019-02-11T11:43:02.654Z,1014.17
2019-02-11T11:44:02.644Z,1014.13
2019-02-11T11:45:02.659Z,1014.22
2019-02-11T11:46:02.626Z,1014.17
2019-02-11T11:47:02.626Z,1014.07
2019-02-11T11:48:02.604Z,1014.09
2019-02-11T11:49:02.589Z,1014.14
2019-02-11T11:50:02.599Z,1014.09
2019-02-11T11:51:02.567Z,1014.07
2019-02-11T11:52:02.560Z,1014.05
2019-02-11T11:53:02.567Z,1014.08
2019-02-11T11:54:02.539Z,1014.09
2019-02-11T11:55:02.542Z,1014.15
2019-02-11T11:56:02.729Z,1014.17
2019-02-11T11:57:02.503Z,1014.16
2019-02-11T11:58:02.507Z,1014.14
2019-02-11T11:59:02.531Z,1014.16
2019-02-11T12:00:02.516Z,1014.28
2019-02-11T12:01:02.463Z,1014.15
2019-02-11T12:02:02.453Z,1014.23
2019-02-11T12:03:04.559Z,1014.29
2019-02-11T12:04:06.174Z,1014.34
2019-02-11T12:05:02.474Z,1014.33
2019-02-11T12:06:02.409Z,1014.40
2019-02-11T12:07:02.406Z,1014.43
2019-02-11T12:08:02.388Z,1014.45
2019-02-11T12:09:02.381Z,1014.43
2019-02-11T12:10:02.410Z,1014.46
2019-02-11T12:11:02.375Z,1014.50
2019-02-11T12:12:02.340Z,1014.54
2019-02-11T12:13:20.708Z,1014.51
2019-02-11T12:14:03.343Z,1014.52
2019-02-11T12:15:02.328Z,1014.55
2019-02-11T12:16:02.354Z,1014.58
2019-02-11T12:17:03.191Z,1014.62
2019-02-11T12:18:02.320Z,1014.58
2019-02-11T12:19:02.362Z,1014.62
2019-02-11T12:20:02.289Z,1014.65
2019-02-11T12:21:02.299Z,1014.63
2019-02-11T12:22:02.248Z,1014.70
2019-02-11T12:23:02.243Z,1014.75
2019-02-11T12:24:02.212Z,1014.70
2019-02-11T12:25:02.215Z,1014.79
2019-02-11T12:26:02.318Z,1014.79
2019-02-11T12:27:02.183Z,1014.89
2019-02-11T12:28:02.178Z,1014.85
2019-02-11T12:29:02.157Z,1014.76
2019-02-11T12:30:02.153Z,1014.84
2019-02-11T12:31:02.170Z,1014.87
2019-02-11T12:32:02.121Z,1014.78
2019-02-11T12:33:02.125Z,1014.82
2019-02-11T12:34:02.127Z,1014.88
2019-02-11T12:35:02.136Z,1014.92
2019-02-11T12:36:02.139Z,1014.97
2019-02-11T12:37:02.069Z,1015.00
2019-02-11T12:38:02.064Z,1015.04
2019-02-11T12:39:02.056Z,1015.02
2019-02-11T12:40:02.074Z,1015.01
2019-02-11T12:41:02.049Z,1015.04
2019-02-11T12:42:02.015Z,1015.07
2019-02-11T12:43:02.000Z,1015.04
2019-02-11T12:44:01.994Z,1015.11
2019-02-11T12:45:02.006Z,1015.08
2019-02-11T12:46:01.996Z,1015.08
2019-02-11T12:47:13.391Z,1015.15
2019-02-11T12:48:02.955Z,1015.08
2019-02-11T12:49:01.991Z,1015.10
2019-02-11T12:50:01.933Z,1015.17
2019-02-11T12:51:01.938Z,1015.17
2019-02-11T12:52:01.916Z,1015.20
2019-02-11T12:53:01.936Z,1015.24
2019-02-11T12:54:01.891Z,1015.24
2019-02-11T12:55:01.947Z,1015.24
2019-02-11T12:56:03.043Z,1015.28
2019-02-11T12:57:01.855Z,1015.31
2019-02-11T12:58:01.858Z,1015.32
2019-02-11T12:59:01.834Z,1015.33
2019-02-11T13:00:01.830Z,1015.32
2019-02-11T13:01:01.849Z,1015.36
2019-02-11T13:02:01.807Z,1015.31
2019-02-11T13:03:01.787Z,1015.40
2019-02-11T13:04:01.804Z,1015.45
2019-02-11T13:05:01.776Z,1015.42
2019-02-11T13:06:01.774Z,1015.46
2019-02-11T13:07:01.755Z,1015.48
2019-02-11T13:08:01.730Z,1015.52
2019-02-11T13:09:01.823Z,1015.57
2019-02-11T13:10:02.084Z,1015.60
2019-02-11T13:11:01.734Z,1015.58
2019-02-11T13:12:01.714Z,1015.58
2019-02-11T13:13:01.698Z,1015.53
2019-02-11T13:14:01.670Z,1015.58
2019-02-11T13:15:02.010Z,1015.59
2019-02-11T13:16:03.151Z,1015.58
2019-02-11T13:17:14.236Z,1015.67
2019-02-11T13:18:02.767Z,1015.64
2019-02-11T13:19:01.633Z,1015.67
2019-02-11T13:20:08.844Z,1015.67
2019-02-11T13:21:02.623Z,1015.63
2019-02-11T13:22:01.605Z,1015.61
2019-02-11T13:23:01.577Z,1015.63
2019-02-11T13:24:01.566Z,1015.68
2019-02-11T13:25:01.571Z,1015.67
2019-02-11T13:26:01.591Z,1015.70
2019-02-11T13:27:01.532Z,1015.75
2019-02-11T13:28:01.573Z,1015.88
2019-02-11T13:29:01.531Z,1015.79
2019-02-11T13:30:01.525Z,1015.82
2019-02-11T13:31:01.489Z,1015.89
2019-02-11T13:32:01.503Z,1015.89
2019-02-11T13:33:01.725Z,1015.94
2019-02-11T13:34:01.480Z,1015.95
2019-02-11T13:35:01.442Z,1016.01
2019-02-11T13:36:01.487Z,1016.05
2019-02-11T13:37:01.448Z,1016.05
2019-02-11T13:38:01.418Z,1016.07
2019-02-11T13:39:01.412Z,1016.06
2019-02-11T13:40:01.406Z,1016.05
2019-02-11T13:41:01.412Z,1016.05
2019-02-11T13:42:01.444Z,1016.12
2019-02-11T13:43:01.356Z,1016.14
2019-02-11T13:44:01.352Z,1016.16
2019-02-11T13:45:01.519Z,1016.22
2019-02-11T13:46:01.368Z,1016.18
2019-02-11T13:47:01.351Z,1016.22
2019-02-11T13:48:01.303Z,1016.34
2019-02-11T13:49:01.292Z,1016.36
2019-02-11T13:50:01.298Z,1016.48
2019-02-11T13:51:01.290Z,1016.53
2019-02-11T13:52:01.291Z,1016.56
2019-02-11T13:53:01.251Z,1016.56
2019-02-11T13:54:01.241Z,1016.60
2019-02-11T13:55:01.282Z,1016.70
2019-02-11T13:56:04.663Z,1016.68
2019-02-11T13:57:01.229Z,1016.66
2019-02-11T13:58:01.203Z,1016.72
2019-02-11T13:59:01.182Z,1016.77
2019-02-11T14:00:01.175Z,1016.82
2019-02-11T14:01:01.164Z,1016.70
2019-02-11T14:02:01.179Z,1016.71
2019-02-11T14:03:01.217Z,1016.74
2019-02-11T14:04:01.149Z,1016.75
2019-02-11T14:05:01.122Z,1016.79
2019-02-11T14:06:01.133Z,1016.78
2019-02-11T14:07:01.119Z,1016.78
2019-02-11T14:08:01.094Z,1016.83
2019-02-11T14:09:01.090Z,1016.80
2019-02-11T14:10:02.486Z,1016.79
2019-02-11T14:11:01.057Z,1016.88
2019-02-11T14:12:01.083Z,1016.82
2019-02-11T14:13:01.041Z,1016.79
2019-02-11T14:14:03.591Z,1016.85
2019-02-11T14:15:01.020Z,1016.90
2019-02-11T14:16:01.038Z,1016.85
2019-02-11T14:17:01.015Z,1016.88
2019-02-11T14:18:11.540Z,1016.87
2019-02-11T14:19:01.973Z,1016.89
2019-02-11T14:20:00.975Z,1016.95
2019-02-11T14:21:00.966Z,1016.92
2019-02-11T14:22:00.960Z,1016.92
2019-02-11T14:23:00.926Z,1016.95
2019-02-11T14:24:00.934Z,1016.97
2019-02-11T14:25:00.903Z,1016.98
2019-02-11T14:26:00.930Z,1017.07
2019-02-11T14:27:00.912Z,1017.16
2019-02-11T14:28:00.878Z,1017.10
2019-02-11T14:29:00.856Z,1017.14
2019-02-11T14:30:00.845Z,1017.17
2019-02-11T14:31:00.838Z,1017.17
2019-02-11T14:32:00.837Z,1017.14
2019-02-11T14:33:00.837Z,1017.28
2019-02-11T14:34:00.855Z,1017.37
2019-02-11T14:35:00.863Z,1017.35
2019-02-11T14:36:00.781Z,1017.36
2019-02-11T14:37:00.809Z,1017.37
2019-02-11T14:38:02.177Z,1017.37
2019-02-11T14:39:00.794Z,1017.43
2019-02-11T14:40:00.745Z,1017.45
2019-02-11T14:41:00.730Z,1017.35
2019-02-11T14:42:00.743Z,1017.37
2019-02-11T14:43:00.729Z,1017.44
2019-02-11T14:44:00.692Z,1017.44
2019-02-11T14:45:00.685Z,1017.48
2019-02-11T14:46:00.695Z,1017.44
2019-02-11T14:47:00.666Z,1017.46
2019-02-11T14:48:00.738Z,1017.49
2019-02-11T14:49:00.642Z,1017.46
2019-02-11T14:50:00.653Z,1017.49
2019-02-11T14:51:00.622Z,1017.47
2019-02-11T14:52:00.609Z,1017.49
2019-02-11T14:53:00.648Z,1017.48
2019-02-11T14:54:00.603Z,1017.51
2019-02-11T14:55:00.595Z,1017.55
2019-02-11T14:56:00.571Z,1017.53
2019-02-11T14:57:00.553Z,1017.55
2019-02-11T14:58:00.588Z,1017.51
2019-02-11T14:59:00.530Z,1017.56
2019-02-11T15:00:00.523Z,1017.65
2019-02-11T15:01:00.523Z,1017.64
2019-02-11T15:02:00.505Z,1017.59
2019-02-11T15:03:00.518Z,1017.62
2019-02-11T15:04:00.477Z,1017.75
2019-02-11T15:05:00.466Z,1017.76
2019-02-11T15:06:00.467Z,1017.69
2019-02-11T15:07:00.455Z,1017.73
2019-02-11T15:08:00.463Z,1017.74
2019-02-11T15:09:00.425Z,1017.79
2019-02-11T15:10:00.415Z,1017.77
2019-02-11T15:11:00.401Z,1017.75
2019-02-11T15:12:00.411Z,1017.67
2019-02-11T15:13:00.399Z,1017.77
2019-02-11T15:14:00.371Z,1017.71
2019-02-11T15:15:00.393Z,1017.81
2019-02-11T15:16:00.357Z,1017.77
2019-02-11T15:17:00.339Z,1017.83
2019-02-11T15:18:00.347Z,1017.82
2019-02-11T15:19:00.316Z,1017.84
2019-02-11T15:20:00.342Z,1017.87
2019-02-11T15:21:00.298Z,1017.83
2019-02-11T15:22:00.301Z,1017.87
2019-02-11T15:23:00.294Z,1017.85
2019-02-11T15:24:00.263Z,1017.87
2019-02-11T15:25:00.320Z,1017.86
2019-02-11T15:26:00.246Z,1017.90
2019-02-11T15:27:00.231Z,1017.88
2019-02-11T15:28:00.240Z,1017.92
2019-02-11T15:29:00.216Z,1017.91
2019-02-11T15:30:00.297Z,1017.98
2019-02-11T15:31:00.186Z,1017.96
2019-02-11T15:32:00.182Z,1017.99
2019-02-11T15:33:00.207Z,1017.94
2019-02-11T15:34:00.161Z,1017.97
2019-02-11T15:35:00.319Z,1018.00
2019-02-11T15:36:00.149Z,1017.97
2019-02-11T15:37:00.123Z,1018.04
2019-02-11T15:38:00.137Z,1018.06
2019-02-11T15:39:00.112Z,1018.07
2019-02-11T15:40:00.110Z,1018.14
2019-02-11T15:41:00.080Z,1018.12
2019-02-11T15:42:00.071Z,1018.14
2019-02-11T15:43:00.079Z,1018.20
2019-02-11T15:44:00.056Z,1018.26
2019-02-11T15:45:00.037Z,1018.26
2019-02-11T15:46:00.045Z,1018.32
2019-02-11T15:47:00.016Z,1018.34
2019-02-11T15:48:00.030Z,1018.35
2019-02-11T15:48:59.998Z,1018.36
2019-02-11T15:49:59.988Z,1018.41
2019-02-11T15:50:59.975Z,1018.44
2019-02-11T15:51:59.972Z,1018.47
2019-02-11T15:52:59.957Z,1018.52
2019-02-11T15:53:59.963Z,1018.49
2019-02-11T15:54:59.944Z,1018.50
2019-02-11T15:56:07.474Z,1018.58
2019-02-11T15:57:00.943Z,1018.58
2019-02-11T15:57:59.906Z,1018.65
2019-02-11T15:58:59.913Z,1018.64
2019-02-11T15:59:59.878Z,1018.69
2019-02-11T16:00:59.868Z,1018.66
2019-02-11T16:01:59.884Z,1018.71
2019-02-11T16:02:59.844Z,1018.70
2019-02-11T16:04:00.059Z,1018.74
2019-02-11T16:05:02.394Z,1018.79
2019-02-11T16:06:06.577Z,1018.82
2019-02-11T16:07:00.802Z,1018.81
2019-02-11T16:07:59.799Z,1018.82
2019-02-11T16:09:04.607Z,1018.86
2019-02-11T16:10:00.769Z,1018.92
2019-02-11T16:11:01.439Z,1018.98
2019-02-11T16:11:59.773Z,1018.99
2019-02-11T16:12:59.744Z,1019.00
2019-02-11T16:13:59.758Z,1019.02
2019-02-11T16:14:59.726Z,1019.06
2019-02-11T16:15:59.717Z,1019.14
2019-02-11T16:16:59.701Z,1019.17
2019-02-11T16:17:59.695Z,1019.20
2019-02-11T16:18:59.702Z,1019.17
2019-02-11T16:19:59.673Z,1019.23
2019-02-11T16:20:59.703Z,1019.26
2019-02-11T16:21:59.646Z,1019.31
2019-02-11T16:22:59.633Z,1019.40
2019-02-11T16:23:59.682Z,1019.42
2019-02-11T16:24:59.619Z,1019.44
2019-02-11T16:25:59.610Z,1019.53
2019-02-11T16:26:59.601Z,1019.51
2019-02-11T16:27:59.583Z,1019.62
2019-02-11T16:28:59.627Z,1019.65
2019-02-11T16:29:59.564Z,1019.63
2019-02-11T16:30:59.556Z,1019.66
2019-02-11T16:32:00.974Z,1019.69
2019-02-11T16:33:01.437Z,1019.69
2019-02-11T16:33:59.530Z,1019.74
2019-02-11T16:34:59.537Z,1019.75
2019-02-11T16:35:59.500Z,1019.74
2019-02-11T16:36:59.508Z,1019.70
2019-02-11T16:37:59.480Z,1019.77
2019-02-11T16:38:59.497Z,1019.86
2019-02-11T16:39:59.457Z,1019.90
2019-02-11T16:40:59.450Z,1019.92
2019-02-11T16:41:59.437Z,1019.92
2019-02-11T16:42:59.432Z,1020.00
2019-02-11T16:43:59.483Z,1020.03
2019-02-11T16:44:59.412Z,1020.00
2019-02-11T16:45:59.399Z,1020.06
2019-02-11T16:46:59.392Z,1020.10
2019-02-11T16:47:59.378Z,1020.14
2019-02-11T16:49:00.814Z,1020.18
2019-02-11T16:49:59.360Z,1020.27
2019-02-11T16:50:59.352Z,1020.31
2019-02-11T16:51:59.337Z,1020.32
2019-02-11T16:52:59.333Z,1020.31
2019-02-11T16:53:59.383Z,1020.33
2019-02-11T16:54:59.369Z,1020.37
2019-02-11T16:55:59.295Z,1020.37
2019-02-11T16:56:59.293Z,1020.40
2019-02-11T16:57:59.273Z,1020.42
2019-02-11T16:58:59.268Z,1020.39
2019-02-11T16:59:59.275Z,1020.45
2019-02-11T17:00:59.242Z,1020.51
2019-02-11T17:01:59.237Z,1020.53
2019-02-11T17:02:59.235Z,1020.54
2019-02-11T17:03:59.217Z,1020.57
2019-02-11T17:04:59.253Z,1020.63
2019-02-11T17:05:59.192Z,1020.75
2019-02-11T17:06:59.192Z,1020.79
2019-02-11T17:07:59.174Z,1020.80
2019-02-11T17:08:59.167Z,1020.87
2019-02-11T17:09:59.188Z,1020.88
2019-02-11T17:10:59.141Z,1020.89
2019-02-11T17:11:59.130Z,1020.96
2019-02-11T17:12:59.119Z,1021.01
2019-02-11T17:13:59.110Z,1021.02
2019-02-11T17:14:59.119Z,1021.06
2019-02-11T17:15:59.101Z,1021.06
2019-02-11T17:16:59.085Z,1021.08
2019-02-11T17:17:59.075Z,1021.12
2019-02-11T17:18:59.058Z,1021.11
2019-02-11T17:19:59.072Z,1021.11
2019-02-11T17:20:59.041Z,1021.08
2019-02-11T17:21:59.071Z,1021.09
2019-02-11T17:22:59.019Z,1021.16
2019-02-11T17:23:59.014Z,1021.15
2019-02-11T17:24:58.999Z,1021.20
2019-02-11T17:25:59.006Z,1021.18
2019-02-11T17:26:58.980Z,1021.20
2019-02-11T17:27:58.966Z,1021.23
2019-02-11T17:28:58.958Z,1021.26
2019-02-11T17:29:58.971Z,1021.27
2019-02-11T17:30:58.936Z,1021.32
2019-02-11T17:31:58.944Z,1021.32
2019-02-11T17:32:58.922Z,1021.32
2019-02-11T17:33:58.904Z,1021.38
2019-02-11T17:34:58.913Z,1021.37
2019-02-11T17:35:58.887Z,1021.37
2019-02-11T17:36:58.872Z,1021.41
2019-02-11T17:37:58.869Z,1021.46
2019-02-11T17:38:58.855Z,1021.51
2019-02-11T17:39:58.874Z,1021.51
2019-02-11T17:40:58.836Z,1021.49
2019-02-11T17:41:58.823Z,1021.52
2019-02-11T17:42:58.811Z,1021.56
2019-02-11T17:43:58.803Z,1021.60
2019-02-11T17:44:58.815Z,1021.62
2019-02-11T17:45:58.784Z,1021.66
2019-02-11T17:46:58.774Z,1021.70
2019-02-11T17:47:58.768Z,1021.66
2019-02-11T17:48:58.752Z,1021.66
2019-02-11T17:49:58.780Z,1021.70
2019-02-11T17:50:58.733Z,1021.75
2019-02-11T17:51:58.719Z,1021.70
2019-02-11T17:52:58.707Z,1021.78
2019-02-11T17:53:58.712Z,1021.74
2019-02-11T17:54:58.710Z,1021.79
2019-02-11T17:55:58.677Z,1021.82
2019-02-11T17:56:58.682Z,1021.77
2019-02-11T17:57:58.656Z,1021.81
2019-02-11T17:58:58.650Z,1021.82
2019-02-11T17:59:58.664Z,1021.82
2019-02-11T18:00:58.631Z,1021.80
2019-02-11T18:01:58.626Z,1021.79
2019-02-11T18:02:58.612Z,1021.85
2019-02-11T18:03:58.605Z,1021.87
2019-02-11T18:04:58.584Z,1021.88
2019-02-11T18:06:00.340Z,1021.90
2019-02-11T18:06:58.570Z,1021.88
2019-02-11T18:07:58.556Z,1021.92
2019-02-11T18:08:58.550Z,1021.95
2019-02-11T18:09:58.531Z,1021.96
2019-02-11T18:10:58.559Z,1021.95
2019-02-11T18:11:58.510Z,1021.96
2019-02-11T18:12:58.508Z,1021.94
2019-02-11T18:13:58.494Z,1022.03
2019-02-11T18:14:58.486Z,1022.06
2019-02-11T18:15:58.494Z,1022.06
2019-02-11T18:16:58.458Z,1022.06
2019-02-11T18:17:58.449Z,1022.10
2019-02-11T18:18:58.437Z,1022.09
2019-02-11T18:19:58.429Z,1022.11
2019-02-11T18:20:58.448Z,1022.17
2019-02-11T18:21:58.411Z,1022.22
2019-02-11T18:22:58.396Z,1022.26
2019-02-11T18:23:58.400Z,1022.29
2019-02-11T18:24:58.377Z,1022.27
2019-02-11T18:25:58.392Z,1022.32
2019-02-11T18:26:58.360Z,1022.29
2019-02-11T18:27:58.365Z,1022.30
2019-02-11T18:28:58.335Z,1022.34
2019-02-11T18:29:58.328Z,1022.28
2019-02-11T18:30:58.334Z,1022.32
2019-02-11T18:31:58.305Z,1022.36
2019-02-11T18:32:58.293Z,1022.33
2019-02-11T18:33:58.290Z,1022.37
2019-02-11T18:34:58.277Z,1022.31
2019-02-11T18:35:58.282Z,1022.30
2019-02-11T18:36:58.251Z,1022.32
2019-02-11T18:37:58.242Z,1022.39
2019-02-11T18:38:58.233Z,1022.36
2019-02-11T18:39:58.223Z,1022.37
2019-02-11T18:40:58.248Z,1022.34
2019-02-11T18:41:58.198Z,1022.34
2019-02-11T18:42:58.198Z,1022.38
2019-02-11T18:43:58.177Z,1022.39
2019-02-11T18:44:58.168Z,1022.42
2019-02-11T18:45:58.177Z,1022.42
2019-02-11T18:46:58.152Z,1022.43
2019-02-11T18:47:58.138Z,1022.46
2019-02-11T18:48:58.138Z,1022.50
2019-02-11T18:49:58.120Z,1022.52
2019-02-11T18:50:58.127Z,1022.55
2019-02-11T18:51:58.104Z,1022.52
2019-02-11T18:52:59.990Z,1022.62
2019-02-11T18:53:58.077Z,1022.68
2019-02-11T18:54:58.091Z,1022.71
2019-02-11T18:55:58.151Z,1022.75
2019-02-11T18:56:58.045Z,1022.82
2019-02-11T18:57:58.040Z,1022.80
2019-02-11T18:58:58.065Z,1022.87
2019-02-11T18:59:58.017Z,1022.88
2019-02-11T19:00:58.010Z,1022.98
2019-02-11T19:01:58.067Z,1022.97
2019-02-11T19:02:57.985Z,1023.01
2019-02-11T19:03:57.970Z,1023.01